Vraca, Bulgaria
Current Conditions -  °F | °C
As of 7:00 AM on Monday 20 Oct 2014 (Local Time) from LBSF Reporting Station
Light Fog Light Fog  
Wind Chill: 39°   Ceiling: 600
Heat Index: 39°   Visibility: 0.5mi
Dew Point: 39°   Wind: 2mph
Humidity: 100%   Direction: 180°S
Pressure: 30.27"   Gusts: NA
Location:  43.22°N, 23.56°E
Report Text: LBSF 200400Z 18001MPS 0800 R27/0900U BCFG VV006 04/04 Q1025 TEMPO 0800 BCFG
Loading
Personal Weather Stations






























Interactive Weather Map
Tropical Storm Tracking
New forecast layout! Learn more

10-Day Weather Forecast

Advertisements
Track Severe Weather on mobile